createdAt,value
2019-05-17T00:02:26.425Z,14.57
2019-05-17T00:07:33.405Z,17.50
2019-05-17T00:12:40.185Z,15.59
2019-05-17T00:17:47.137Z,19.56
2019-05-17T00:22:53.704Z,17.22
2019-05-17T00:28:00.274Z,17.38
2019-05-17T00:33:07.858Z,26.74
2019-05-17T00:38:16.889Z,19.18
2019-05-17T00:43:26.114Z,14.92
2019-05-17T00:48:32.925Z,15.67
2019-05-17T00:53:39.846Z,21.07
2019-05-17T00:58:47.795Z,16.71
2019-05-17T01:03:54.507Z,15.45
2019-05-17T01:09:04.006Z,15.20
2019-05-17T01:14:10.699Z,15.57
2019-05-17T01:19:17.299Z,15.02
2019-05-17T01:24:23.771Z,15.35
2019-05-17T01:29:30.278Z,15.01
2019-05-17T01:34:37.661Z,13.24
2019-05-17T01:39:46.695Z,13.65
2019-05-17T01:44:53.408Z,12.26
2019-05-17T01:49:59.890Z,13.87
2019-05-17T01:55:06.573Z,14.63
2019-05-17T02:00:13.125Z,13.19
2019-05-17T02:05:19.643Z,12.98
2019-05-17T02:10:27.171Z,11.95
2019-05-17T02:15:33.868Z,11.74
2019-05-17T02:20:40.269Z,13.33
2019-05-17T02:25:47.290Z,11.17
2019-05-17T02:30:54.069Z,10.79
2019-05-17T02:36:02.691Z,10.60
2019-05-17T02:41:09.590Z,10.18
2019-05-17T02:46:15.993Z,10.36
2019-05-17T02:51:23.685Z,11.30
2019-05-17T02:56:32.768Z,11.03
2019-05-17T03:01:39.430Z,11.17
2019-05-17T03:06:46.070Z,13.67
2019-05-17T03:11:56.698Z,11.44
2019-05-17T03:16:54.434Z,11.52
2019-05-17T03:22:04.427Z,12.32
2019-05-17T03:27:04.215Z,12.05
2019-05-17T03:32:16.819Z,12.85
2019-05-17T03:37:16.128Z,17.68
2019-05-17T03:42:23.231Z,13.52
2019-05-17T03:47:33.159Z,15.36
2019-05-17T03:52:33.262Z,15.87
2019-05-17T03:57:43.639Z,14.89
2019-05-17T04:02:44.613Z,16.77
2019-05-17T04:07:43.605Z,16.40
2019-05-17T04:12:52.974Z,17.09
2019-05-17T04:18:03.684Z,18.38
2019-05-17T04:23:03.959Z,19.25
2019-05-17T04:28:13.863Z,17.13
2019-05-17T04:33:23.272Z,17.92
2019-05-17T04:38:33.165Z,19.39
2019-05-17T04:43:42.419Z,18.50
2019-05-17T04:48:49.627Z,16.88
2019-05-17T04:53:56.186Z,20.18
2019-05-17T04:59:03.512Z,22.17
2019-05-17T05:04:10.189Z,20.37
2019-05-17T05:09:16.888Z,20.16
2019-05-17T05:14:23.595Z,19.04
2019-05-17T05:19:32.740Z,20.06
2019-05-17T05:24:42.222Z,19.09
2019-05-17T05:29:49.036Z,17.52
2019-05-17T05:34:55.754Z,17.85
2019-05-17T05:40:02.764Z,18.77
2019-05-17T05:45:11.972Z,16.80
2019-05-17T05:50:18.828Z,14.41
2019-05-17T05:55:25.864Z,15.51
2019-05-17T06:00:33.093Z,15.94
2019-05-17T06:05:42.371Z,13.80
2019-05-17T06:10:49.133Z,13.72
2019-05-17T06:15:55.654Z,14.16
2019-05-17T06:21:03.193Z,15.41
2019-05-17T06:26:12.291Z,15.05
2019-05-17T06:31:19.160Z,14.92
2019-05-17T06:36:25.649Z,13.42
2019-05-17T06:41:32.428Z,13.19
2019-05-17T06:46:41.614Z,12.12
2019-05-17T06:51:48.508Z,13.46
2019-05-17T06:56:55.463Z,18.89
2019-05-17T07:02:01.954Z,13.72
2019-05-17T07:07:10.647Z,12.90
2019-05-17T07:12:20.237Z,13.92
2019-05-17T07:17:26.946Z,14.54
2019-05-17T07:22:33.825Z,13.11
2019-05-17T07:27:42.643Z,13.90
2019-05-17T07:32:42.296Z,14.18
2019-05-17T07:37:50.189Z,13.74
2019-05-17T07:43:09.740Z,14.25
2019-05-17T07:48:04.078Z,12.92
2019-05-17T07:53:10.837Z,12.84
2019-05-17T07:58:21.122Z,13.36
2019-05-17T08:03:20.703Z,13.59
2019-05-17T08:08:30.544Z,14.03
2019-05-17T08:13:33.023Z,12.40
2019-05-17T08:18:32.015Z,12.81
2019-05-17T08:23:39.965Z,12.75
2019-05-17T08:28:49.781Z,12.93
2019-05-17T08:33:57.279Z,12.17
2019-05-17T08:39:04.420Z,13.33
2019-05-17T08:44:11.341Z,16.06
2019-05-17T08:49:20.169Z,15.24
2019-05-17T08:54:27.239Z,13.48
2019-05-17T08:59:34.071Z,13.68
2019-05-17T09:04:40.936Z,14.77
2019-05-17T09:09:49.996Z,14.61
2019-05-17T09:14:57.048Z,14.01
2019-05-17T09:20:04.297Z,14.16
2019-05-17T09:25:17.099Z,13.24
2019-05-17T09:30:16.862Z,13.88
2019-05-17T09:35:24.396Z,13.66
2019-05-17T09:40:32.565Z,14.37
2019-05-17T09:45:40.359Z,14.79
2019-05-17T09:50:50.229Z,15.12
2019-05-17T09:55:57.146Z,14.16
2019-05-17T10:01:03.735Z,15.16
2019-05-17T10:06:10.351Z,14.64
2019-05-17T10:11:20.075Z,14.85
2019-05-17T10:16:20.048Z,12.71
2019-05-17T10:21:19.865Z,12.78
2019-05-17T10:26:30.198Z,12.69
2019-05-17T10:31:30.248Z,12.17
2019-05-17T10:36:40.128Z,11.96
2019-05-17T10:41:49.929Z,10.95
2019-05-17T10:46:57.780Z,11.38
2019-05-17T10:52:05.189Z,9.86
2019-05-17T10:57:16.491Z,11.04
2019-05-17T11:02:15.777Z,8.14
2019-05-17T11:07:22.744Z,8.82
2019-05-17T11:12:31.110Z,9.44
2019-05-17T11:17:38.238Z,9.20
2019-05-17T11:22:45.834Z,9.61
2019-05-17T11:27:52.748Z,8.79
2019-05-17T11:33:02.105Z,8.38
2019-05-17T11:38:10.086Z,9.70
2019-05-17T11:43:17.918Z,8.24
2019-05-17T11:48:25.897Z,7.19
2019-05-17T11:53:33.423Z,7.79
2019-05-17T11:58:42.463Z,7.26
2019-05-17T12:03:54.012Z,8.02
2019-05-17T12:08:52.853Z,8.40
2019-05-17T12:14:00.373Z,9.00
2019-05-17T12:19:07.419Z,10.61
2019-05-17T12:24:14.291Z,11.57
2019-05-17T12:29:21.148Z,9.84
2019-05-17T12:34:28.118Z,9.64
2019-05-17T12:39:34.975Z,9.71
2019-05-17T12:44:41.743Z,8.61
2019-05-17T12:49:48.438Z,11.05
2019-05-17T12:54:55.131Z,9.40
2019-05-17T13:00:01.697Z,8.82
2019-05-17T13:05:08.544Z,8.64
2019-05-17T13:10:14.989Z,8.63
2019-05-17T13:15:21.604Z,8.72
2019-05-17T13:20:28.693Z,7.96
2019-05-17T13:25:35.601Z,7.73
2019-05-17T13:30:42.730Z,8.16
2019-05-17T13:35:49.419Z,9.01
2019-05-17T13:40:56.263Z,9.96
2019-05-17T13:46:02.878Z,9.21
2019-05-17T13:51:09.355Z,8.96
2019-05-17T13:56:16.083Z,8.94
2019-05-17T14:01:24.018Z,9.15
2019-05-17T14:06:30.746Z,9.21
2019-05-17T14:11:37.180Z,8.64
2019-05-17T14:16:43.961Z,8.71
2019-05-17T14:21:50.455Z,8.81
2019-05-17T14:26:56.945Z,10.25
2019-05-17T14:32:03.757Z,9.56
2019-05-17T14:37:10.348Z,9.37
2019-05-17T14:42:16.766Z,9.33
2019-05-17T14:47:23.206Z,9.72
2019-05-17T14:52:29.625Z,10.59
2019-05-17T14:57:36.061Z,10.39
2019-05-17T15:02:42.636Z,9.69
2019-05-17T15:07:49.089Z,9.88
2019-05-17T15:12:55.789Z,10.13
2019-05-17T15:18:02.322Z,9.28
2019-05-17T15:23:08.779Z,9.19
2019-05-17T15:28:15.399Z,9.31
2019-05-17T15:33:21.955Z,9.54
2019-05-17T15:38:28.386Z,8.63
2019-05-17T15:43:36.191Z,8.76
2019-05-17T15:48:42.909Z,8.19
2019-05-17T15:53:49.374Z,8.82
2019-05-17T15:58:56.807Z,8.76
2019-05-17T16:04:03.307Z,8.65
2019-05-17T16:09:10.081Z,9.67
2019-05-17T16:14:16.653Z,11.44
2019-05-17T16:19:23.278Z,8.54
2019-05-17T16:24:30.185Z,9.21
2019-05-17T16:29:37.356Z,9.89
2019-05-17T16:34:44.058Z,10.13
2019-05-17T16:39:50.543Z,9.73
2019-05-17T16:44:56.971Z,10.40
2019-05-17T16:50:03.395Z,9.87
2019-05-17T16:55:10.000Z,9.70
2019-05-17T17:00:16.608Z,12.91
2019-05-17T17:05:23.216Z,10.25
2019-05-17T17:10:29.743Z,10.54
2019-05-17T17:15:36.336Z,10.23
2019-05-17T17:20:42.784Z,10.70
2019-05-17T17:25:49.370Z,13.18
2019-05-17T17:30:55.924Z,10.77
2019-05-17T17:36:02.464Z,11.51
2019-05-17T17:41:09.313Z,10.88
2019-05-17T17:46:15.705Z,11.22
2019-05-17T17:51:22.158Z,11.65
2019-05-17T17:56:28.581Z,10.15
2019-05-17T18:01:34.960Z,11.74
2019-05-17T18:06:41.695Z,11.37
2019-05-17T18:11:48.093Z,11.05
2019-05-17T18:16:54.776Z,11.32
2019-05-17T18:22:01.461Z,11.23
2019-05-17T18:27:08.216Z,11.20
2019-05-17T18:30:22.236Z,8.95
2019-05-17T18:36:18.816Z,10.86
2019-05-17T18:41:25.695Z,12.37
2019-05-17T18:46:31.912Z,15.43
2019-05-17T18:51:38.621Z,35.51
2019-05-17T18:56:44.821Z,16.59
2019-05-17T19:01:51.095Z,17.50
2019-05-17T19:06:57.423Z,20.44
2019-05-17T19:12:03.877Z,16.96
2019-05-17T19:17:10.352Z,20.10
2019-05-17T19:22:16.669Z,20.10
2019-05-17T19:27:23.050Z,21.63
2019-05-17T19:32:29.251Z,20.25
2019-05-17T19:37:35.609Z,22.53
2019-05-17T19:42:41.871Z,25.17
2019-05-17T19:47:48.745Z,29.21
2019-05-17T19:52:55.234Z,35.92
2019-05-17T19:58:01.985Z,30.43
2019-05-17T20:03:08.338Z,24.91
2019-05-17T20:08:15.213Z,21.04
2019-05-17T20:13:21.932Z,20.69
2019-05-17T20:18:28.264Z,25.56
2019-05-17T20:23:34.778Z,23.22
2019-05-17T20:28:41.060Z,22.94
2019-05-17T20:33:47.295Z,25.24
2019-05-17T20:38:53.626Z,22.82
2019-05-17T20:44:00.455Z,21.67
2019-05-17T20:49:06.904Z,19.39
2019-05-17T20:54:13.354Z,21.39
2019-05-17T20:59:19.583Z,20.90
2019-05-17T21:04:25.770Z,25.51
2019-05-17T21:09:32.100Z,25.45
2019-05-17T21:14:38.539Z,25.60
2019-05-17T21:19:45.724Z,22.77
2019-05-17T21:24:52.515Z,23.91
2019-05-17T21:29:58.759Z,24.47
2019-05-17T21:35:05.283Z,25.23
2019-05-17T21:40:11.587Z,26.91
2019-05-17T21:45:17.849Z,24.41
2019-05-17T21:50:23.952Z,26.07
2019-05-17T21:55:30.413Z,25.03
2019-05-17T22:00:36.539Z,28.03
2019-05-17T22:05:42.759Z,24.72
2019-05-17T22:10:48.948Z,25.07
2019-05-17T22:15:55.152Z,26.12
2019-05-17T22:21:01.505Z,28.49
2019-05-17T22:26:08.968Z,27.49
2019-05-17T22:31:15.414Z,31.71
2019-05-17T22:36:21.860Z,28.18
2019-05-17T22:41:28.061Z,28.84
2019-05-17T22:46:36.371Z,29.04
2019-05-17T22:51:42.888Z,30.22
2019-05-17T22:56:49.304Z,28.65
2019-05-17T23:01:55.569Z,27.84
2019-05-17T23:07:01.815Z,29.34
2019-05-17T23:12:08.008Z,30.03
2019-05-17T23:17:14.095Z,29.13
2019-05-17T23:22:20.375Z,29.23
2019-05-17T23:27:26.539Z,31.10
2019-05-17T23:32:32.831Z,32.67
2019-05-17T23:37:39.001Z,28.63
2019-05-17T23:42:45.392Z,29.55
2019-05-17T23:47:51.559Z,30.31
2019-05-17T23:52:57.741Z,29.89
2019-05-17T23:58:03.963Z,31.02
